createdAt,value
2023-03-08T00:01:46.132Z,1.58
2023-03-08T00:04:52.245Z,1.38
2023-03-08T00:07:57.898Z,4.57
2023-03-08T00:11:03.506Z,1.58
2023-03-08T00:14:09.987Z,4.30
2023-03-08T00:17:18.752Z,2.85
2023-03-08T00:20:26.683Z,3.10
2023-03-08T00:23:32.491Z,0.50
2023-03-08T00:26:39.133Z,2.45
2023-03-08T00:29:44.691Z,3.40
2023-03-08T00:32:54.753Z,3.35
2023-03-08T00:36:02.695Z,2.40
2023-03-08T00:39:08.265Z,1.20
2023-03-08T00:42:16.196Z,2.22
2023-03-08T00:45:21.612Z,2.47
2023-03-08T00:48:30.079Z,4.72
2023-03-08T00:51:36.352Z,2.10
2023-03-08T00:54:43.617Z,4.97
2023-03-08T00:57:51.288Z,0.98
2023-03-08T01:01:00.400Z,1.35
2023-03-08T01:04:09.369Z,8.27
2023-03-08T01:07:18.034Z,5.75
2023-03-08T01:10:23.203Z,2.92
2023-03-08T01:13:30.078Z,1.77
2023-03-08T01:16:35.921Z,5.68
2023-03-08T01:19:44.538Z,3.53
2023-03-08T01:22:49.756Z,2.72
2023-03-08T01:26:04.408Z,3.47
2023-03-08T01:29:10.098Z,1.65
2023-03-08T01:32:19.873Z,1.70
2023-03-08T01:35:27.950Z,4.50
2023-03-08T01:38:33.493Z,1.23
2023-03-08T01:41:41.273Z,2.42
2023-03-08T01:44:57.285Z,4.05
2023-03-08T01:48:05.408Z,1.83
2023-03-08T01:51:15.744Z,4.10
2023-03-08T01:54:22.437Z,2.20
2023-03-08T01:57:29.547Z,0.85
2023-03-08T02:00:36.930Z,1.20
2023-03-08T02:03:44.016Z,3.47
2023-03-08T02:06:52.059Z,2.65
2023-03-08T02:09:58.470Z,1.75
2023-03-08T02:13:05.362Z,3.22
2023-03-08T02:16:13.292Z,2.85
2023-03-08T02:19:23.739Z,1.60
2023-03-08T02:22:32.558Z,1.83
2023-03-08T02:25:43.176Z,2.42
2023-03-08T02:28:56.358Z,3.28
2023-03-08T02:32:01.393Z,1.75
2023-03-08T02:35:08.950Z,1.45
2023-03-08T02:38:14.776Z,2.28
2023-03-08T02:41:24.409Z,2.70
2023-03-08T02:44:31.318Z,4.72
2023-03-08T02:47:39.229Z,2.50
2023-03-08T02:50:46.194Z,2.63
2023-03-08T02:53:52.645Z,3.85
2023-03-08T02:57:03.133Z,5.13
2023-03-08T03:00:10.336Z,1.85
2023-03-08T03:03:18.751Z,1.73
2023-03-08T03:06:26.917Z,2.75
2023-03-08T03:09:32.729Z,5.05
2023-03-08T03:12:41.282Z,1.42
2023-03-08T03:15:47.736Z,3.10
2023-03-08T03:18:53.833Z,2.65
2023-03-08T03:22:03.018Z,4.32
2023-03-08T03:25:09.406Z,1.60
2023-03-08T03:28:17.042Z,1.65
2023-03-08T03:31:23.321Z,4.75
2023-03-08T03:34:30.432Z,2.45
2023-03-08T03:37:37.760Z,1.88
2023-03-08T03:40:43.505Z,1.88
2023-03-08T03:43:52.337Z,2.33
2023-03-08T03:46:57.466Z,1.73
2023-03-08T03:50:03.241Z,3.40
2023-03-08T03:53:09.605Z,2.72
2023-03-08T03:56:16.606Z,2.17
2023-03-08T03:59:27.303Z,1.83
2023-03-08T04:02:33.257Z,0.47
2023-03-08T04:05:40.610Z,2.10
2023-03-08T04:08:49.389Z,4.20
2023-03-08T04:11:54.710Z,3.03
2023-03-08T04:15:05.149Z,1.98
2023-03-08T04:18:11.188Z,1.05
2023-03-08T04:21:19.577Z,1.95
2023-03-08T04:24:27.445Z,2.58
2023-03-08T04:27:35.392Z,2.88
2023-03-08T04:30:46.164Z,1.35
2023-03-08T04:33:52.508Z,1.77
2023-03-08T04:36:57.417Z,9.80
2023-03-08T04:40:05.674Z,2.55
2023-03-08T04:43:11.286Z,4.40
2023-03-08T04:46:20.106Z,1.98
2023-03-08T04:49:27.623Z,3.35
2023-03-08T04:52:33.277Z,0.77
2023-03-08T04:55:39.706Z,1.42
2023-03-08T04:58:51.613Z,2.75
2023-03-08T05:01:59.711Z,2.58
2023-03-08T05:05:06.217Z,0.40
2023-03-08T05:08:11.528Z,3.08
2023-03-08T05:11:22.508Z,2.05
2023-03-08T05:14:27.534Z,1.25
2023-03-08T05:17:35.697Z,3.15
2023-03-08T05:20:40.766Z,1.25
2023-03-08T05:23:53.839Z,4.28
2023-03-08T05:27:05.664Z,1.27
2023-03-08T05:30:12.868Z,1.27
2023-03-08T05:33:23.323Z,1.27
2023-03-08T05:36:28.792Z,1.55
2023-03-08T05:39:34.045Z,2.83
2023-03-08T05:42:43.037Z,2.88
2023-03-08T05:45:57.373Z,2.45
2023-03-08T05:49:11.081Z,1.83
2023-03-08T05:52:16.053Z,2.42
2023-03-08T05:55:28.944Z,4.22
2023-03-08T05:58:34.140Z,1.02
2023-03-08T06:01:45.419Z,2.38
2023-03-08T06:04:56.306Z,2.78
2023-03-08T06:08:02.425Z,0.88
2023-03-08T06:11:07.597Z,2.22
2023-03-08T06:14:13.466Z,1.30
2023-03-08T06:17:20.832Z,2.92
2023-03-08T06:20:30.051Z,3.50
2023-03-08T06:23:35.511Z,3.38
2023-03-08T06:26:43.865Z,2.70
2023-03-08T06:29:49.124Z,3.15
2023-03-08T06:32:54.628Z,1.65
2023-03-08T06:36:03.618Z,1.42
2023-03-08T06:39:10.071Z,2.30
2023-03-08T06:42:16.401Z,1.88
2023-03-08T06:45:26.498Z,1.38
2023-03-08T06:48:31.400Z,2.90
2023-03-08T06:51:39.360Z,0.88
2023-03-08T06:54:44.275Z,1.90
2023-03-08T06:57:50.092Z,4.38
2023-03-08T07:00:55.171Z,1.98
2023-03-08T07:04:00.646Z,1.50
2023-03-08T07:07:09.205Z,1.13
2023-03-08T07:10:15.730Z,0.65
2023-03-08T07:13:23.706Z,4.78
2023-03-08T07:16:29.414Z,3.92
2023-03-08T07:19:34.796Z,1.65
2023-03-08T07:22:44.769Z,2.42
2023-03-08T07:25:49.679Z,1.15
2023-03-08T07:28:56.049Z,3.97
2023-03-08T07:32:01.038Z,1.02
2023-03-08T07:35:07.100Z,0.65
2023-03-08T07:38:15.599Z,2.65
2023-03-08T07:41:20.927Z,1.85
2023-03-08T07:44:26.050Z,1.05
2023-03-08T07:47:33.251Z,1.85
2023-03-08T07:50:38.158Z,2.60
2023-03-08T07:53:47.151Z,1.00
2023-03-08T07:56:52.430Z,1.02
2023-03-08T07:59:58.883Z,0.47
2023-03-08T08:03:08.776Z,2.70
2023-03-08T08:06:14.447Z,3.92
2023-03-08T08:09:22.892Z,4.80
2023-03-08T08:12:28.972Z,5.03
2023-03-08T08:15:35.928Z,4.63
2023-03-08T08:18:41.392Z,5.25
2023-03-08T08:21:46.897Z,5.18
2023-03-08T08:24:56.675Z,6.45
2023-03-08T08:28:01.843Z,2.00
2023-03-08T08:31:08.506Z,5.35
2023-03-08T08:34:13.745Z,3.53
2023-03-08T08:37:19.997Z,1.27
2023-03-08T08:40:29.254Z,1.50
2023-03-08T08:43:36.053Z,7.03
2023-03-08T08:46:41.370Z,4.22
2023-03-08T08:49:47.107Z,1.45
2023-03-08T08:52:54.807Z,2.72
2023-03-08T08:56:03.046Z,2.05
2023-03-08T08:59:08.259Z,4.20
2023-03-08T09:02:16.485Z,2.40
2023-03-08T09:05:21.876Z,2.25
2023-03-08T09:08:28.693Z,3.35
2023-03-08T09:11:45.122Z,3.70
2023-03-08T09:15:00.365Z,3.65
2023-03-08T09:18:06.107Z,2.05
2023-03-08T09:21:11.769Z,3.15
2023-03-08T09:24:18.962Z,2.45
2023-03-08T09:27:33.612Z,1.25
2023-03-08T09:30:38.952Z,1.70
2023-03-08T09:33:45.202Z,3.03
2023-03-08T09:36:50.348Z,2.92
2023-03-08T09:39:56.125Z,6.50
2023-03-08T09:43:08.496Z,3.38
2023-03-08T09:49:22.554Z,3.55
2023-03-08T09:52:35.479Z,2.80
2023-03-08T09:55:45.605Z,4.47
2023-03-08T09:58:57.769Z,6.60
2023-03-08T10:02:05.640Z,4.40
2023-03-08T10:05:18.710Z,4.43
2023-03-08T10:08:27.440Z,4.07
2023-03-08T10:11:35.702Z,5.93
2023-03-08T10:14:45.845Z,4.28
2023-03-08T10:17:54.270Z,6.50
2023-03-08T10:21:01.030Z,8.55
2023-03-08T10:24:15.682Z,2.92
2023-03-08T10:27:22.941Z,4.90
2023-03-08T10:30:30.952Z,3.05
2023-03-08T10:33:39.332Z,12.57
2023-03-08T10:36:54.236Z,9.52
2023-03-08T10:40:06.086Z,9.45
2023-03-08T10:43:18.714Z,5.45
2023-03-08T10:46:25.485Z,10.50
2023-03-08T10:49:33.605Z,8.15
2023-03-08T10:52:39.317Z,5.50
2023-03-08T10:55:50.679Z,7.03
2023-03-08T10:58:58.321Z,5.00
2023-03-08T11:02:05.583Z,5.43
2023-03-08T11:05:26.793Z,6.60
2023-03-08T11:08:38.335Z,7.75
2023-03-08T11:11:44.837Z,6.78
2023-03-08T11:14:51.600Z,4.07
2023-03-08T11:17:58.471Z,8.65
2023-03-08T11:21:08.544Z,7.10
2023-03-08T11:24:25.130Z,7.00
2023-03-08T11:27:43.067Z,10.30
2023-03-08T11:30:57.224Z,6.25
2023-03-08T11:34:17.448Z,9.57
2023-03-08T11:37:29.239Z,8.18
2023-03-08T11:40:44.272Z,7.63
2023-03-08T11:44:06.750Z,7.35
2023-03-08T11:47:29.839Z,10.45
2023-03-08T11:50:39.067Z,13.85
2023-03-08T11:53:54.443Z,19.55
2023-03-08T11:57:04.768Z,8.93
2023-03-08T12:00:18.519Z,9.82
2023-03-08T12:03:29.127Z,7.90
2023-03-08T12:06:38.085Z,6.93
2023-03-08T12:09:55.664Z,6.93
2023-03-08T12:13:08.065Z,6.75
2023-03-08T12:16:16.868Z,5.80
2023-03-08T12:19:27.489Z,7.75
2023-03-08T12:22:40.297Z,8.18
2023-03-08T12:25:48.419Z,11.02
2023-03-08T12:29:04.032Z,7.68
2023-03-08T12:32:12.060Z,10.65
2023-03-08T12:35:39.853Z,6.97
2023-03-08T12:38:47.592Z,5.82
2023-03-08T12:42:00.070Z,6.53
2023-03-08T12:45:31.460Z,6.10
2023-03-08T12:48:42.667Z,4.20
2023-03-08T12:51:58.936Z,4.38
2023-03-08T12:55:06.377Z,5.80
2023-03-08T12:58:19.627Z,7.80
2023-03-08T13:01:32.182Z,6.05
2023-03-08T13:07:57.505Z,8.43
2023-03-08T13:11:09.382Z,7.05
2023-03-08T13:14:28.202Z,3.95
2023-03-08T13:17:52.812Z,3.95
2023-03-08T13:21:05.565Z,9.02
2023-03-08T13:24:19.114Z,10.00
2023-03-08T13:27:33.526Z,8.50
2023-03-08T13:30:42.767Z,5.60
2023-03-08T13:33:49.353Z,9.07
2023-03-08T13:36:56.682Z,5.53
2023-03-08T13:40:08.079Z,5.70
2023-03-08T13:43:17.191Z,5.90
2023-03-08T13:46:23.984Z,7.90
2023-03-08T13:49:32.372Z,7.07
2023-03-08T13:52:39.982Z,7.07
2023-03-08T13:55:51.635Z,5.68
2023-03-08T13:58:59.774Z,5.63
2023-03-08T14:02:06.793Z,6.70
2023-03-08T14:05:25.155Z,7.43
2023-03-08T14:08:31.576Z,7.15
2023-03-08T14:11:42.360Z,5.30
2023-03-08T14:14:50.582Z,8.10
2023-03-08T14:18:02.733Z,5.90
2023-03-08T14:21:10.529Z,5.82
2023-03-08T14:24:20.252Z,8.20
2023-03-08T14:27:41.098Z,7.75
2023-03-08T14:30:51.217Z,8.43
2023-03-08T14:33:59.264Z,9.45
2023-03-08T14:37:05.112Z,10.20
2023-03-08T14:40:23.164Z,11.93
2023-03-08T14:43:32.324Z,8.30
2023-03-08T14:46:40.769Z,10.68
2023-03-08T14:49:45.954Z,8.02
2023-03-08T14:52:52.113Z,9.80
2023-03-08T14:55:57.184Z,10.25
2023-03-08T14:59:10.421Z,10.70
2023-03-08T15:02:20.185Z,7.75
2023-03-08T15:05:29.607Z,9.18
2023-03-08T15:08:37.442Z,8.98
2023-03-08T15:11:43.597Z,10.45
2023-03-08T15:14:51.612Z,9.93
2023-03-08T15:17:57.325Z,8.30
2023-03-08T15:21:02.702Z,9.88
2023-03-08T15:24:10.047Z,10.57
2023-03-08T15:27:17.600Z,11.07
2023-03-08T15:30:27.881Z,10.05
2023-03-08T15:33:33.357Z,11.75
2023-03-08T15:36:39.832Z,10.77
2023-03-08T15:39:45.933Z,10.75
2023-03-08T15:42:51.545Z,13.75
2023-03-08T15:45:59.861Z,12.93
2023-03-08T15:49:09.770Z,14.52
2023-03-08T15:52:30.315Z,11.85
2023-03-08T15:55:37.359Z,11.82
2023-03-08T15:58:43.231Z,9.40
2023-03-08T16:01:55.578Z,5.53
2023-03-08T16:05:02.122Z,5.10
2023-03-08T16:08:09.974Z,5.25
2023-03-08T16:11:19.612Z,3.97
2023-03-08T16:14:29.034Z,5.53
2023-03-08T16:17:40.820Z,5.38
2023-03-08T16:20:49.586Z,3.63
2023-03-08T16:23:54.984Z,4.40
2023-03-08T16:27:01.030Z,3.50
2023-03-08T16:30:07.378Z,5.07
2023-03-08T16:33:17.962Z,5.80
2023-03-08T16:36:24.674Z,5.13
2023-03-08T16:39:30.629Z,5.05
2023-03-08T16:42:36.407Z,7.85
2023-03-08T16:45:54.977Z,4.75
2023-03-08T16:49:04.543Z,4.82
2023-03-08T16:52:16.380Z,6.25
2023-03-08T16:55:24.125Z,5.82
2023-03-08T16:58:31.273Z,8.90
2023-03-08T17:01:40.664Z,6.13
2023-03-08T17:04:50.416Z,5.40
2023-03-08T17:07:55.802Z,8.00
2023-03-08T17:11:04.994Z,6.18
2023-03-08T17:14:13.606Z,8.52
2023-03-08T17:17:26.540Z,6.57
2023-03-08T17:20:34.984Z,6.10
2023-03-08T17:23:42.212Z,9.30
2023-03-08T17:27:02.911Z,10.70
2023-03-08T17:30:14.344Z,29.88
2023-03-08T17:33:26.107Z,31.33
2023-03-08T17:36:39.168Z,51.22
2023-03-08T17:39:46.033Z,35.33
2023-03-08T17:42:54.100Z,35.72
2023-03-08T17:46:05.146Z,34.15
2023-03-08T17:49:13.966Z,35.43
2023-03-08T17:52:24.303Z,25.65
2023-03-08T17:55:32.569Z,28.90
2023-03-08T17:58:39.201Z,26.67
2023-03-08T18:01:45.281Z,20.08
2023-03-08T18:05:04.940Z,42.30
2023-03-08T18:08:16.520Z,17.48
2023-03-08T18:11:23.292Z,16.33
2023-03-08T18:14:39.562Z,17.48
2023-03-08T18:17:54.063Z,15.23
2023-03-08T18:21:12.733Z,11.07
2023-03-08T18:24:24.191Z,11.38
2023-03-08T18:27:30.227Z,13.63
2023-03-08T18:30:50.689Z,12.60
2023-03-08T18:34:02.338Z,8.95
2023-03-08T18:37:09.766Z,7.65
2023-03-08T18:40:20.013Z,7.63
2023-03-08T18:43:35.387Z,7.57
2023-03-08T18:46:41.367Z,5.55
2023-03-08T18:49:48.952Z,5.18
2023-03-08T18:52:55.373Z,5.47
2023-03-08T18:56:07.487Z,5.45
2023-03-08T18:59:14.311Z,6.13
2023-03-08T19:02:29.152Z,4.25
2023-03-08T19:05:35.189Z,4.03
2023-03-08T19:15:28.717Z,28.00
2023-03-08T19:18:43.838Z,21.35
2023-03-08T19:21:55.144Z,19.63
2023-03-08T19:28:38.930Z,26.45
2023-03-08T19:38:28.457Z,9.45
2023-03-08T20:06:13.716Z,8.32
2023-03-08T20:12:41.239Z,11.40
2023-03-08T20:15:56.315Z,9.20
2023-03-08T20:23:05.267Z,10.15
2023-03-08T20:26:15.876Z,8.15
2023-03-08T20:29:26.625Z,14.00
2023-03-08T20:32:35.898Z,12.57
2023-03-08T20:35:41.709Z,10.27
2023-03-08T20:38:52.105Z,11.23
2023-03-08T20:45:35.249Z,14.95
2023-03-08T20:48:47.869Z,16.67
2023-03-08T20:51:53.438Z,15.93
2023-03-08T20:55:07.285Z,15.07
2023-03-08T20:58:13.716Z,13.30
2023-03-08T21:01:23.425Z,16.25
2023-03-08T21:04:29.408Z,11.50
2023-03-08T21:07:36.967Z,14.57
2023-03-08T21:10:48.856Z,15.45
2023-03-08T21:13:59.704Z,14.80
2023-03-08T21:17:06.676Z,13.00
2023-03-08T21:20:33.160Z,12.80
2023-03-08T21:23:40.280Z,12.65
2023-03-08T21:26:52.179Z,14.00
2023-03-08T21:29:58.152Z,16.17
2023-03-08T21:33:06.417Z,12.52
2023-03-08T21:36:13.009Z,12.05
2023-03-08T21:39:21.089Z,13.48
2023-03-08T21:42:36.382Z,11.55
2023-03-08T21:45:47.516Z,17.80
2023-03-08T21:48:54.668Z,12.35
2023-03-08T21:52:06.720Z,12.23
2023-03-08T21:55:31.007Z,13.05
2023-03-08T21:58:47.720Z,18.52
2023-03-08T22:01:57.488Z,14.45
2023-03-08T22:05:14.895Z,12.32
2023-03-08T22:08:26.673Z,15.85
2023-03-08T22:11:33.396Z,17.80
2023-03-08T22:14:43.442Z,16.42
2023-03-08T22:17:56.483Z,15.93
2023-03-08T22:21:06.320Z,16.13
2023-03-08T22:24:13.005Z,16.20
2023-03-08T22:27:18.871Z,14.20
2023-03-08T22:30:39.956Z,16.35
2023-03-08T22:33:51.282Z,14.68
2023-03-08T22:37:06.374Z,15.23
2023-03-08T22:40:18.716Z,14.48
2023-03-08T22:46:42.503Z,13.63
2023-03-08T22:49:48.708Z,14.40
2023-03-08T22:52:55.808Z,16.80
2023-03-08T22:56:04.531Z,15.45
2023-03-08T22:59:14.065Z,14.60
2023-03-08T23:02:24.374Z,17.45
2023-03-08T23:05:33.097Z,15.00
2023-03-08T23:09:00.644Z,14.85
2023-03-08T23:12:07.832Z,16.40
2023-03-08T23:15:15.890Z,13.90
2023-03-08T23:18:26.274Z,17.13
2023-03-08T23:21:33.830Z,14.38
2023-03-08T23:24:45.281Z,18.40
2023-03-08T23:27:53.061Z,19.17
2023-03-08T23:31:02.607Z,19.90
2023-03-08T23:34:13.844Z,23.40
2023-03-08T23:37:20.551Z,20.63
2023-03-08T23:40:28.376Z,17.67
2023-03-08T23:43:35.990Z,19.48
2023-03-08T23:46:46.577Z,18.25
2023-03-08T23:49:54.830Z,15.93
2023-03-08T23:53:02.261Z,17.15
2023-03-08T23:56:19.960Z,15.07
2023-03-08T23:59:33.619Z,18.58
